createdAt,value
2023-04-04T00:01:35.832Z,9.02
2023-04-04T00:06:44.542Z,9.01
2023-04-04T00:11:48.153Z,8.88
2023-04-04T00:16:51.789Z,8.88
2023-04-04T00:21:56.594Z,8.92
2023-04-04T00:26:59.728Z,8.92
2023-04-04T00:32:03.861Z,8.83
2023-04-04T00:37:12.237Z,8.76
2023-04-04T00:42:15.739Z,8.70
2023-04-04T00:47:19.347Z,8.69
2023-04-04T00:52:24.216Z,8.67
2023-04-04T00:57:28.952Z,8.74
2023-04-04T01:02:33.557Z,8.62
2023-04-04T01:07:38.719Z,8.60
2023-04-04T01:12:43.522Z,8.45
2023-04-04T01:17:47.111Z,8.55
2023-04-04T01:22:53.135Z,8.49
2023-04-04T01:27:58.069Z,8.47
2023-04-04T01:33:03.669Z,8.41
2023-04-04T01:38:17.025Z,8.34
2023-04-04T01:43:22.035Z,8.36
2023-04-04T01:48:25.951Z,8.32
2023-04-04T01:53:29.509Z,8.29
2023-04-04T01:58:34.427Z,8.39
2023-04-04T02:03:37.557Z,8.51
2023-04-04T02:08:40.977Z,8.45
2023-04-04T02:13:45.973Z,8.40
2023-04-04T02:18:49.942Z,8.38
2023-04-04T02:23:53.367Z,8.34
2023-04-04T02:28:58.154Z,8.47
2023-04-04T02:34:01.460Z,8.43
2023-04-04T02:39:06.025Z,8.40
2023-04-04T02:44:11.121Z,8.40
2023-04-04T02:49:14.597Z,8.35
2023-04-04T02:54:17.995Z,8.31
2023-04-04T02:59:22.931Z,8.25
2023-04-04T03:04:26.397Z,8.14
2023-04-04T03:09:29.859Z,8.12
2023-04-04T03:14:34.737Z,8.20
2023-04-04T03:19:37.895Z,8.24
2023-04-04T03:24:41.339Z,8.24
2023-04-04T03:29:46.213Z,8.31
2023-04-04T03:34:49.401Z,8.38
2023-04-04T03:39:52.873Z,8.21
2023-04-04T03:44:57.686Z,8.39
2023-04-04T03:50:01.314Z,8.47
2023-04-04T03:55:04.892Z,8.26
2023-04-04T04:00:11.217Z,8.31
2023-04-04T04:05:14.846Z,8.34
2023-04-04T04:10:18.523Z,8.40
2023-04-04T04:15:23.464Z,8.44
2023-04-04T04:20:26.658Z,8.60
2023-04-04T04:25:30.066Z,8.63
2023-04-04T04:30:34.903Z,8.76
2023-04-04T04:35:38.976Z,9.00
2023-04-04T04:40:43.177Z,8.82
2023-04-04T04:45:48.620Z,8.90
2023-04-04T04:50:52.302Z,8.89
2023-04-04T04:55:55.768Z,8.87
2023-04-04T05:01:01.156Z,8.96
2023-04-04T05:06:04.829Z,9.04
2023-04-04T05:11:08.343Z,9.13
2023-04-04T05:16:13.274Z,9.41
2023-04-04T05:21:17.168Z,9.68
2023-04-04T05:26:20.996Z,9.87
2023-04-04T05:31:25.897Z,10.10
2023-04-04T05:36:29.785Z,10.12
2023-04-04T05:41:33.473Z,10.29
2023-04-04T05:46:38.379Z,10.56
2023-04-04T05:51:42.039Z,10.56
2023-04-04T05:56:45.558Z,10.60
2023-04-04T06:01:50.433Z,10.77
2023-04-04T06:06:53.641Z,11.01
2023-04-04T06:11:57.185Z,11.06
2023-04-04T06:17:02.316Z,11.31
2023-04-04T06:22:05.828Z,11.51
2023-04-04T06:27:09.422Z,11.72
2023-04-04T06:32:14.257Z,11.73
2023-04-04T06:37:17.386Z,11.86
2023-04-04T06:42:20.847Z,12.12
2023-04-04T06:47:25.780Z,12.61
2023-04-04T06:52:29.482Z,13.15
2023-04-04T06:57:33.303Z,13.23
2023-04-04T07:02:38.409Z,13.35
2023-04-04T07:07:42.177Z,13.63
2023-04-04T07:12:45.603Z,13.84
2023-04-04T07:17:50.855Z,14.24
2023-04-04T07:22:54.537Z,14.76
2023-04-04T07:28:09.616Z,16.23
2023-04-04T07:33:17.466Z,15.59
2023-04-04T07:38:21.293Z,15.95
2023-04-04T07:43:24.789Z,16.05
2023-04-04T07:48:29.585Z,16.32
2023-04-04T07:53:33.314Z,16.61
2023-04-04T07:58:37.476Z,16.08
2023-04-04T08:03:42.509Z,15.32
2023-04-04T08:08:47.266Z,15.07
2023-04-04T08:13:50.425Z,15.00
2023-04-04T08:18:55.374Z,14.80
2023-04-04T08:23:58.872Z,14.54
2023-04-04T08:29:02.832Z,14.92
2023-04-04T08:34:08.486Z,15.40
2023-04-04T08:39:12.496Z,16.57
2023-04-04T08:44:20.749Z,17.75
2023-04-04T08:49:28.009Z,18.08
2023-04-04T08:54:33.228Z,18.41
2023-04-04T08:59:37.207Z,18.40
2023-04-04T09:04:51.345Z,19.76
2023-04-04T09:10:04.654Z,19.88
2023-04-04T09:15:10.093Z,19.80
2023-04-04T09:20:41.202Z,19.86
2023-04-04T09:26:02.564Z,19.79
2023-04-04T09:31:12.958Z,19.89
2023-04-04T09:36:18.546Z,19.63
2023-04-04T09:41:22.360Z,19.48
2023-04-04T09:46:27.340Z,19.45
2023-04-04T09:51:37.505Z,19.15
2023-04-04T09:56:43.355Z,18.71
2023-04-04T10:01:47.404Z,18.69
2023-04-04T10:06:55.959Z,18.86
2023-04-04T10:12:10.854Z,18.23
2023-04-04T10:17:14.931Z,18.15
2023-04-04T10:22:22.314Z,18.72
2023-04-04T10:27:30.639Z,18.70
2023-04-04T10:32:44.834Z,18.25
2023-04-04T10:37:55.783Z,18.23
2023-04-04T10:43:04.129Z,17.83
2023-04-04T10:48:10.603Z,17.87
2023-04-04T10:53:33.610Z,17.75
2023-04-04T10:58:41.840Z,17.81
2023-04-04T11:04:21.190Z,17.75
2023-04-04T11:09:54.221Z,17.88
2023-04-04T11:14:59.710Z,17.98
2023-04-04T11:20:04.231Z,18.25
2023-04-04T11:25:25.320Z,18.60
2023-04-04T11:30:30.242Z,18.37
2023-04-04T11:35:33.888Z,18.05
2023-04-04T11:40:42.225Z,18.33
2023-04-04T11:45:48.006Z,18.36
2023-04-04T11:50:51.528Z,18.27
2023-04-04T11:55:56.722Z,18.37
2023-04-04T12:01:02.574Z,18.30
2023-04-04T12:06:06.440Z,18.19
2023-04-04T12:11:11.219Z,17.35
2023-04-04T12:16:16.078Z,17.22
2023-04-04T12:21:19.535Z,16.98
2023-04-04T12:26:23.628Z,17.22
2023-04-04T12:31:29.253Z,17.15
2023-04-04T12:36:34.234Z,17.04
2023-04-04T12:41:37.861Z,17.05
2023-04-04T12:46:45.310Z,16.57
2023-04-04T12:51:50.402Z,16.76
2023-04-04T12:56:57.089Z,16.67
2023-04-04T13:02:03.408Z,16.49
2023-04-04T13:07:06.972Z,16.34
2023-04-04T13:12:12.305Z,16.47
2023-04-04T13:17:17.279Z,16.85
2023-04-04T13:22:20.980Z,16.48
2023-04-04T13:27:28.624Z,16.30
2023-04-04T13:32:33.501Z,16.32
2023-04-04T13:37:37.532Z,16.30
2023-04-04T13:42:40.993Z,16.06
2023-04-04T13:47:50.330Z,15.72
2023-04-04T13:52:54.813Z,15.90
2023-04-04T13:57:58.170Z,15.75
2023-04-04T14:03:04.049Z,15.85
2023-04-04T14:08:08.296Z,15.94
2023-04-04T14:13:11.985Z,15.82
2023-04-04T14:18:17.001Z,15.67
2023-04-04T14:23:21.444Z,15.72
2023-04-04T14:28:25.013Z,15.69
2023-04-04T14:33:30.005Z,15.55
2023-04-04T14:38:36.462Z,15.40
2023-04-04T14:43:39.869Z,15.39
2023-04-04T14:48:45.021Z,15.16
2023-04-04T14:53:52.506Z,14.92
2023-04-04T14:58:57.077Z,14.91
2023-04-04T15:04:02.064Z,15.01
2023-04-04T15:09:06.831Z,14.75
2023-04-04T15:14:09.980Z,14.57
2023-04-04T15:19:14.853Z,14.35
2023-04-04T15:24:18.278Z,14.13
2023-04-04T15:29:21.888Z,13.90
2023-04-04T15:34:26.981Z,13.71
2023-04-04T15:39:31.691Z,13.44
2023-04-04T15:44:38.293Z,13.07
2023-04-04T15:49:43.109Z,12.87
2023-04-04T15:54:46.614Z,12.67
2023-04-04T15:59:50.963Z,12.53
2023-04-04T16:04:57.840Z,12.42
2023-04-04T16:10:01.429Z,12.33
2023-04-04T16:15:07.924Z,12.25
2023-04-04T16:20:13.726Z,12.12
2023-04-04T16:25:17.435Z,12.05
2023-04-04T16:30:21.074Z,12.03
2023-04-04T16:35:46.300Z,11.50
2023-04-04T16:40:49.998Z,11.74
2023-04-04T16:45:53.549Z,11.73
2023-04-04T16:50:58.408Z,11.74
2023-04-04T16:56:01.936Z,11.54
2023-04-04T17:01:06.245Z,11.63
2023-04-04T17:06:11.621Z,11.50
2023-04-04T17:11:15.680Z,11.51
2023-04-04T17:16:19.167Z,11.48
2023-04-04T17:21:24.153Z,11.49
2023-04-04T17:26:28.178Z,11.41
2023-04-04T17:31:32.064Z,11.40
2023-04-04T17:36:37.010Z,11.32
2023-04-04T17:41:40.611Z,11.19
2023-04-04T17:46:45.190Z,11.12
2023-04-04T17:51:50.573Z,10.89
2023-04-04T17:56:54.935Z,10.77
2023-04-04T18:01:58.569Z,10.87
2023-04-04T18:07:03.602Z,10.93
2023-04-04T18:12:07.279Z,10.85
2023-04-04T18:17:10.989Z,10.74
2023-04-04T18:22:15.995Z,10.65
2023-04-04T18:27:19.478Z,10.50
2023-04-04T18:32:25.838Z,10.36
2023-04-04T18:37:31.078Z,10.19
2023-04-04T18:42:35.182Z,9.90
2023-04-04T18:47:39.740Z,9.74
2023-04-04T18:52:45.261Z,9.61
2023-04-04T18:57:49.236Z,9.49
2023-04-04T19:02:53.223Z,9.31
2023-04-04T19:08:00.749Z,9.19
2023-04-04T19:13:04.289Z,9.06
2023-04-04T19:18:07.910Z,9.00
2023-04-04T19:23:13.214Z,8.92
2023-04-04T19:28:16.661Z,8.78
2023-04-04T19:33:23.026Z,8.59
2023-04-04T19:38:29.887Z,8.48
2023-04-04T19:43:33.494Z,8.32
2023-04-04T19:48:43.826Z,8.36
2023-04-04T19:53:50.508Z,8.25
2023-04-04T19:58:55.355Z,8.17
2023-04-04T20:04:06.572Z,8.05
2023-04-04T20:09:14.507Z,7.95
2023-04-04T20:14:22.410Z,7.79
2023-04-04T20:19:29.003Z,7.69
2023-04-04T20:24:34.051Z,7.60
2023-04-04T20:29:37.897Z,7.55
2023-04-04T20:34:42.943Z,7.38
2023-04-04T20:39:54.797Z,7.43
2023-04-04T20:45:00.785Z,7.38
2023-04-04T20:50:34.790Z,7.34
2023-04-04T20:55:41.797Z,7.24
2023-04-04T21:00:46.811Z,7.14
2023-04-04T21:05:51.200Z,7.11
2023-04-04T21:10:57.329Z,7.14
2023-04-04T21:16:03.250Z,7.08
2023-04-04T21:21:18.951Z,7.06
2023-04-04T21:26:30.311Z,7.04
2023-04-04T21:31:39.204Z,7.02
2023-04-04T21:36:43.260Z,6.95
2023-04-04T21:41:51.620Z,7.04
2023-04-04T21:46:55.988Z,7.02
2023-04-04T21:51:59.435Z,7.02
2023-04-04T21:57:04.332Z,7.05
2023-04-04T22:02:07.584Z,7.07
2023-04-04T22:07:11.199Z,6.98
2023-04-04T22:12:16.056Z,6.98
2023-04-04T22:17:23.701Z,6.95
2023-04-04T22:22:29.869Z,6.82
2023-04-04T22:27:36.048Z,6.83
2023-04-04T22:32:43.955Z,6.70
2023-04-04T22:37:47.463Z,6.65
2023-04-04T22:42:52.407Z,6.66
2023-04-04T22:47:58.112Z,6.61
2023-04-04T22:53:01.554Z,6.58
2023-04-04T22:58:06.453Z,6.57
2023-04-04T23:03:09.588Z,6.55
2023-04-04T23:08:13.005Z,6.41
2023-04-04T23:13:17.905Z,6.36
2023-04-04T23:18:22.169Z,6.23
2023-04-04T23:23:25.920Z,6.22
2023-04-04T23:28:31.049Z,6.20
2023-04-04T23:33:34.545Z,6.14
2023-04-04T23:38:37.985Z,6.09
2023-04-04T23:43:43.620Z,6.08
2023-04-04T23:48:47.250Z,6.04
2023-04-04T23:53:50.881Z,5.98
2023-04-04T23:58:55.774Z,5.96
